createdAt,value
2017-09-10T00:00:46.805Z,90.5
2017-09-10T00:01:49.194Z,90.6
2017-09-10T00:02:51.582Z,90.5
2017-09-10T00:03:53.985Z,90.6
2017-09-10T00:04:56.386Z,90.6
2017-09-10T00:05:58.776Z,90.6
2017-09-10T00:07:01.183Z,90.6
2017-09-10T00:08:03.579Z,90.6
2017-09-10T00:09:05.983Z,90.6
2017-09-10T00:10:08.387Z,90.6
2017-09-10T00:11:10.769Z,90.6
2017-09-10T00:12:13.180Z,90.6
2017-09-10T00:13:15.566Z,90.5
2017-09-10T00:14:17.978Z,90.5
2017-09-10T00:15:20.388Z,90.5
2017-09-10T00:16:22.783Z,90.6
2017-09-10T00:17:25.178Z,90.4
2017-09-10T00:18:27.571Z,90.4
2017-09-10T00:19:29.964Z,90.4
2017-09-10T00:20:32.373Z,90.4
2017-09-10T00:21:34.761Z,90.4
2017-09-10T00:22:37.154Z,90.3
2017-09-10T00:23:39.553Z,90.4
2017-09-10T00:24:41.945Z,90.3
2017-09-10T00:25:44.354Z,90.4
2017-09-10T00:26:46.767Z,90.3
2017-09-10T00:27:49.150Z,90.3
2017-09-10T00:28:51.555Z,90.3
2017-09-10T00:29:53.954Z,90.4
2017-09-10T00:30:56.349Z,90.4
2017-09-10T00:31:58.746Z,90.3
2017-09-10T00:33:01.476Z,90.3
2017-09-10T00:34:03.869Z,90.3
2017-09-10T00:35:06.273Z,90.3
2017-09-10T00:36:08.676Z,90.4
2017-09-10T00:37:11.070Z,90.3
2017-09-10T00:38:13.473Z,90.4
2017-09-10T00:39:15.877Z,90.5
2017-09-10T00:40:18.273Z,90.5
2017-09-10T00:41:20.668Z,90.6
2017-09-10T00:42:23.388Z,90.5
2017-09-10T00:43:25.784Z,90.4
2017-09-10T00:44:28.189Z,90.5
2017-09-10T00:45:30.587Z,90.5
2017-09-10T00:46:32.981Z,90.5
2017-09-10T00:47:35.371Z,90.4
2017-09-10T00:48:37.764Z,90.4
2017-09-10T00:49:40.160Z,90.5
2017-09-10T00:50:42.554Z,90.4
2017-09-10T00:51:44.956Z,90.5
2017-09-10T00:52:47.349Z,90.4
2017-09-10T00:53:49.749Z,90.4
2017-09-10T00:54:52.153Z,90.4
2017-09-10T00:55:54.548Z,90.4
2017-09-10T00:56:57.287Z,90.4
2017-09-10T00:57:59.700Z,90.4
2017-09-10T00:59:02.091Z,90.4
2017-09-10T01:00:04.489Z,90.3
2017-09-10T01:01:07.221Z,90.4
2017-09-10T01:02:09.617Z,90.2
2017-09-10T01:03:12.359Z,90.3
2017-09-10T01:04:14.757Z,90.3
2017-09-10T01:05:17.148Z,90.3
2017-09-10T01:06:19.546Z,90.4
2017-09-10T01:07:21.941Z,90.1
2017-09-10T01:08:24.342Z,90.3
2017-09-10T01:09:26.731Z,90.2
2017-09-10T01:10:29.133Z,90.4
2017-09-10T01:11:31.895Z,90.3
2017-09-10T01:12:34.285Z,90.4
2017-09-10T01:13:36.682Z,90.4
2017-09-10T01:14:39.081Z,90.4
2017-09-10T01:15:41.476Z,90.4
2017-09-10T01:16:43.874Z,90.3
2017-09-10T01:17:46.276Z,90.3
2017-09-10T01:18:48.661Z,90.4
2017-09-10T01:19:51.079Z,90.2
2017-09-10T01:20:53.471Z,90.2
2017-09-10T01:21:55.864Z,90.3
2017-09-10T01:22:58.264Z,90.4
2017-09-10T01:24:00.659Z,90.3
2017-09-10T01:25:03.059Z,90.4
2017-09-10T01:26:05.457Z,90.3
2017-09-10T01:27:08.236Z,90.3
2017-09-10T01:28:10.640Z,90.4
2017-09-10T01:29:13.050Z,90.4
2017-09-10T01:30:15.446Z,90.3
2017-09-10T01:31:17.843Z,90.3
2017-09-10T01:32:20.609Z,90.2
2017-09-10T01:33:23.022Z,90.3
2017-09-10T01:34:25.768Z,90.3
2017-09-10T01:35:28.549Z,90.3
2017-09-10T01:36:31.306Z,90.2
2017-09-10T01:37:33.696Z,90.2
2017-09-10T01:38:36.089Z,90.1
2017-09-10T01:39:38.488Z,90.2
2017-09-10T01:40:40.890Z,90.2
2017-09-10T01:41:43.278Z,90.2
2017-09-10T01:42:45.667Z,90.2
2017-09-10T01:43:48.069Z,90.2
2017-09-10T01:44:50.454Z,90.2
2017-09-10T01:45:52.867Z,90.2
2017-09-10T01:46:55.260Z,90.2
2017-09-10T01:47:57.651Z,90.2
2017-09-10T01:49:00.051Z,90.2
2017-09-10T01:50:02.797Z,90.2
2017-09-10T01:51:05.187Z,90.2
2017-09-10T01:52:07.588Z,90.2
2017-09-10T01:53:09.968Z,90.2
2017-09-10T01:54:12.370Z,90.2
2017-09-10T01:55:14.769Z,90.2
2017-09-10T01:56:17.162Z,90.2
2017-09-10T01:57:19.552Z,90.2
2017-09-10T01:58:21.941Z,90.2
2017-09-10T01:59:24.333Z,90.2
2017-09-10T02:00:26.733Z,90.2
2017-09-10T02:01:29.468Z,90.2
2017-09-10T02:02:31.868Z,90.2
2017-09-10T02:03:34.259Z,90.1
2017-09-10T02:04:36.661Z,90.1
2017-09-10T02:05:39.076Z,90.2
2017-09-10T02:06:41.479Z,90.2
2017-09-10T02:07:44.214Z,90.2
2017-09-10T02:08:46.611Z,90.2
2017-09-10T02:09:49.015Z,90.2
2017-09-10T02:10:51.413Z,90.3
2017-09-10T02:11:53.800Z,90.3
2017-09-10T02:12:56.194Z,90.3
2017-09-10T02:13:58.592Z,90.3
2017-09-10T02:15:00.987Z,90.3
2017-09-10T02:16:03.381Z,90.3
2017-09-10T02:17:05.782Z,90.3
2017-09-10T02:18:08.174Z,90.3
2017-09-10T02:19:10.574Z,90.2
2017-09-10T02:20:12.966Z,90.2
2017-09-10T02:21:15.722Z,90.2
2017-09-10T02:22:18.113Z,90.2
2017-09-10T02:23:21.181Z,90.2
2017-09-10T02:24:23.578Z,90.2
2017-09-10T02:25:25.966Z,90.2
2017-09-10T02:26:28.367Z,90.2
2017-09-10T02:27:31.105Z,90.3
2017-09-10T02:28:33.496Z,90.3
2017-09-10T02:29:35.884Z,90.3
2017-09-10T02:30:38.277Z,90.3
2017-09-10T02:31:40.699Z,90.3
2017-09-10T02:32:43.087Z,90.3
2017-09-10T02:33:45.483Z,90.2
2017-09-10T02:34:47.877Z,90.1
2017-09-10T02:35:50.260Z,90.1
2017-09-10T02:36:52.661Z,90.1
2017-09-10T02:37:55.079Z,90
2017-09-10T02:38:57.441Z,90
2017-09-10T02:39:59.847Z,90.1
2017-09-10T02:41:02.234Z,90
2017-09-10T02:42:04.631Z,90
2017-09-10T02:43:07.023Z,90
2017-09-10T02:44:09.420Z,90
2017-09-10T02:45:11.816Z,90
2017-09-10T02:46:14.214Z,90
2017-09-10T02:47:16.612Z,90
2017-09-10T02:48:19.010Z,90
2017-09-10T02:49:21.411Z,90
2017-09-10T02:50:23.801Z,90
2017-09-10T02:51:26.200Z,90
2017-09-10T02:52:28.589Z,90
2017-09-10T02:53:31.321Z,89.9
2017-09-10T02:54:33.710Z,89.8
2017-09-10T02:55:36.110Z,89.9
2017-09-10T02:56:38.509Z,89.9
2017-09-10T02:57:40.908Z,90
2017-09-10T02:58:43.296Z,89.9
2017-09-10T02:59:45.692Z,90
2017-09-10T03:00:48.083Z,90
2017-09-10T03:01:50.480Z,90
2017-09-10T03:02:52.878Z,90
2017-09-10T03:03:55.271Z,90
2017-09-10T03:04:57.657Z,90
2017-09-10T03:06:00.060Z,90.1
2017-09-10T03:07:02.781Z,90.1
2017-09-10T03:08:05.181Z,90.2
2017-09-10T03:09:07.578Z,90.2
2017-09-10T03:10:09.971Z,90.2
2017-09-10T03:11:12.365Z,90.2
2017-09-10T03:12:14.762Z,90.2
2017-09-10T03:13:17.166Z,90.2
2017-09-10T03:14:19.549Z,90.2
2017-09-10T03:15:21.940Z,90.2
2017-09-10T03:16:24.342Z,90.2
2017-09-10T03:17:26.742Z,90.2
2017-09-10T03:18:29.137Z,90.2
2017-09-10T03:19:31.529Z,90.2
2017-09-10T03:20:33.925Z,90.2
2017-09-10T03:21:36.651Z,90.2
2017-09-10T03:22:39.047Z,90.2
2017-09-10T03:23:41.780Z,90.2
2017-09-10T03:24:44.170Z,90.2
2017-09-10T03:25:46.581Z,90.2
2017-09-10T03:26:48.974Z,90.2
2017-09-10T03:27:51.367Z,90.2
2017-09-10T03:28:53.761Z,90.1
2017-09-10T03:29:56.146Z,90.1
2017-09-10T03:30:58.541Z,90.1
2017-09-10T03:32:00.942Z,90.1
2017-09-10T03:33:03.338Z,90.1
2017-09-10T03:34:05.737Z,90
2017-09-10T03:35:08.129Z,90
2017-09-10T03:36:10.522Z,90
2017-09-10T03:37:12.925Z,90
2017-09-10T03:38:15.310Z,90
2017-09-10T03:39:17.695Z,90
2017-09-10T03:40:20.101Z,90
2017-09-10T03:41:22.489Z,89.9
2017-09-10T03:42:24.877Z,89.9
2017-09-10T03:43:27.273Z,90
2017-09-10T03:44:29.664Z,89.9
2017-09-10T03:45:32.060Z,89.9
2017-09-10T03:46:34.454Z,89.9
2017-09-10T03:47:36.857Z,89.9
2017-09-10T03:48:39.253Z,90
2017-09-10T03:49:41.643Z,90
2017-09-10T03:50:44.046Z,90
2017-09-10T03:51:46.456Z,90
2017-09-10T03:52:49.191Z,90
2017-09-10T03:53:52.295Z,90
2017-09-10T03:54:54.677Z,89.9
2017-09-10T03:55:57.072Z,89.9
2017-09-10T03:56:59.473Z,90
2017-09-10T03:58:01.856Z,89.9
2017-09-10T03:59:04.257Z,89.9
2017-09-10T04:00:06.648Z,89.9
2017-09-10T04:01:09.043Z,89.9
2017-09-10T04:02:11.777Z,89.9
2017-09-10T04:03:14.171Z,89.8
2017-09-10T04:04:16.557Z,89.9
2017-09-10T04:05:18.957Z,90
2017-09-10T04:06:21.344Z,90
2017-09-10T04:07:24.093Z,90.1
2017-09-10T04:08:26.483Z,90.2
2017-09-10T04:09:28.893Z,90.1
2017-09-10T04:10:31.289Z,90.2
2017-09-10T04:11:34.027Z,90.2
2017-09-10T04:12:36.416Z,90.2
2017-09-10T04:13:38.803Z,90.2
2017-09-10T04:14:41.200Z,90.2
2017-09-10T04:15:43.593Z,90.2
2017-09-10T04:16:46.332Z,90.3
2017-09-10T04:17:48.727Z,90.3
2017-09-10T04:18:51.120Z,90.4
2017-09-10T04:19:53.501Z,90.3
2017-09-10T04:20:55.897Z,90.3
2017-09-10T04:21:58.624Z,90.3
2017-09-10T04:23:01.018Z,90.3
2017-09-10T04:24:03.418Z,90.3
2017-09-10T04:25:05.808Z,90.3
2017-09-10T04:26:08.200Z,90.3
2017-09-10T04:27:10.602Z,90.3
2017-09-10T04:28:13.000Z,90.3
2017-09-10T04:29:15.407Z,90.3
2017-09-10T04:30:18.151Z,90.3
2017-09-10T04:31:20.548Z,90.3
2017-09-10T04:32:22.948Z,90.2
2017-09-10T04:33:25.347Z,90.1
2017-09-10T04:34:27.748Z,90.2
2017-09-10T04:35:30.144Z,90.2
2017-09-10T04:36:32.535Z,90.2
2017-09-10T04:37:34.954Z,90.2
2017-09-10T04:38:37.340Z,90.1
2017-09-10T04:39:39.740Z,90.2
2017-09-10T04:40:42.147Z,90.2
2017-09-10T04:41:44.537Z,90.2
2017-09-10T04:42:46.933Z,90.2
2017-09-10T04:43:49.323Z,90.2
2017-09-10T04:44:51.712Z,90.2
2017-09-10T04:45:54.119Z,90.1
2017-09-10T04:46:56.498Z,90.2
2017-09-10T04:47:58.911Z,90.2
2017-09-10T04:49:01.321Z,90.1
2017-09-10T04:50:03.720Z,90.2
2017-09-10T04:51:06.138Z,90.2
2017-09-10T04:52:08.508Z,90.2
2017-09-10T04:53:10.900Z,90.2
2017-09-10T04:54:13.300Z,90.2
2017-09-10T04:55:16.025Z,90.3
2017-09-10T04:56:18.407Z,90.4
2017-09-10T04:57:20.815Z,90.4
2017-09-10T04:58:23.204Z,90.4
2017-09-10T04:59:25.600Z,90.4
2017-09-10T05:00:28.002Z,90.4
2017-09-10T05:01:30.404Z,90.4
2017-09-10T05:02:32.796Z,90.4
2017-09-10T05:03:35.203Z,90.4
2017-09-10T05:04:37.601Z,90.4
2017-09-10T05:05:39.999Z,90.4
2017-09-10T05:06:42.396Z,90.4
2017-09-10T05:07:44.781Z,90.4
2017-09-10T05:08:47.183Z,90.5
2017-09-10T05:09:49.577Z,90.5
2017-09-10T05:10:51.976Z,90.4
2017-09-10T05:11:54.361Z,90.5
2017-09-10T05:12:56.764Z,90.5
2017-09-10T05:13:59.157Z,90.6
2017-09-10T05:15:01.568Z,90.5
2017-09-10T05:16:03.971Z,90.5
2017-09-10T05:17:06.713Z,90.5
2017-09-10T05:18:09.105Z,90.4
2017-09-10T05:19:11.502Z,90.4
2017-09-10T05:20:13.906Z,90.5
2017-09-10T05:21:16.291Z,90.5
2017-09-10T05:22:18.693Z,90.4
2017-09-10T05:23:21.083Z,90.4
2017-09-10T05:24:23.472Z,90.5
2017-09-10T05:25:26.210Z,90.5
2017-09-10T05:26:28.604Z,90.5
2017-09-10T05:27:30.993Z,90.5
2017-09-10T05:28:33.384Z,90.6
2017-09-10T05:29:35.775Z,90.7
2017-09-10T05:30:38.176Z,90.7
2017-09-10T05:31:40.576Z,90.7
2017-09-10T05:32:42.965Z,90.7
2017-09-10T05:33:45.371Z,90.7
2017-09-10T05:34:47.768Z,90.7
2017-09-10T05:35:50.161Z,90.8
2017-09-10T05:36:52.560Z,90.9
2017-09-10T05:37:55.308Z,91
2017-09-10T05:38:57.705Z,91
2017-09-10T05:40:00.096Z,91
2017-09-10T05:41:02.484Z,91
2017-09-10T05:42:04.880Z,90.9
2017-09-10T05:43:07.268Z,90.9
2017-09-10T05:44:09.652Z,90.9
2017-09-10T05:45:12.063Z,91
2017-09-10T05:46:14.455Z,91
2017-09-10T05:47:16.845Z,91
2017-09-10T05:48:19.237Z,91
2017-09-10T05:49:21.633Z,91.1
2017-09-10T05:50:24.036Z,91.1
2017-09-10T05:51:26.429Z,91.1
2017-09-10T05:52:28.816Z,91.1
2017-09-10T05:53:31.207Z,91.2
2017-09-10T05:54:33.595Z,91.2
2017-09-10T05:55:36.001Z,91.2
2017-09-10T05:56:38.393Z,91.2
2017-09-10T05:57:41.132Z,91.2
2017-09-10T05:58:43.523Z,91.1
2017-09-10T05:59:45.918Z,91.2
2017-09-10T06:00:48.320Z,91.1
2017-09-10T06:01:51.065Z,91.1
2017-09-10T06:02:53.794Z,91.1
2017-09-10T06:03:56.194Z,91.2
2017-09-10T06:04:58.589Z,91.1
2017-09-10T06:06:01.003Z,91
2017-09-10T06:07:03.395Z,91.2
2017-09-10T06:08:05.785Z,91.2
2017-09-10T06:09:08.181Z,91.3
2017-09-10T06:10:10.581Z,91.2
2017-09-10T06:11:12.978Z,91.4
2017-09-10T06:12:15.378Z,91.3
2017-09-10T06:13:17.789Z,91.3
2017-09-10T06:14:20.192Z,91.3
2017-09-10T06:15:22.588Z,91.1
2017-09-10T06:16:24.988Z,91.1
2017-09-10T06:17:27.387Z,91.2
2017-09-10T06:18:29.773Z,91.1
2017-09-10T06:19:32.177Z,91.1
2017-09-10T06:20:34.573Z,91
2017-09-10T06:21:36.976Z,91.1
2017-09-10T06:22:39.717Z,90.8
2017-09-10T06:23:42.136Z,91
2017-09-10T06:24:44.545Z,91.1
2017-09-10T06:25:46.946Z,91.1
2017-09-10T06:26:49.678Z,91.2
2017-09-10T06:27:52.072Z,91.2
2017-09-10T06:28:54.466Z,91.2
2017-09-10T06:29:56.881Z,91.2
2017-09-10T06:30:59.270Z,91.4
2017-09-10T06:32:01.669Z,91.4
2017-09-10T06:33:04.085Z,91.5
2017-09-10T06:34:06.488Z,91.5
2017-09-10T06:35:08.889Z,91.5
2017-09-10T06:36:11.291Z,91.6
2017-09-10T06:37:13.697Z,91.6
2017-09-10T06:38:16.090Z,91.6
2017-09-10T06:39:18.506Z,91.7
2017-09-10T06:40:21.594Z,91.7
2017-09-10T06:41:23.991Z,91.7
2017-09-10T06:42:26.728Z,91.7
2017-09-10T06:43:29.119Z,91.7
2017-09-10T06:44:31.505Z,91.7
2017-09-10T06:45:33.907Z,91.7
2017-09-10T06:46:36.307Z,91.7
2017-09-10T06:47:38.701Z,91.6
2017-09-10T06:48:41.108Z,91.7
2017-09-10T06:49:43.504Z,91.7
2017-09-10T06:50:45.914Z,91.7
2017-09-10T06:51:48.319Z,91.7
2017-09-10T06:52:51.062Z,91.4
2017-09-10T06:53:53.460Z,91.5
2017-09-10T06:54:55.872Z,91.4
2017-09-10T06:55:58.305Z,91.4
2017-09-10T06:57:00.700Z,91.4
2017-09-10T06:58:03.093Z,91.4
2017-09-10T06:59:05.495Z,91.5
2017-09-10T07:00:07.899Z,91.5
2017-09-10T07:01:10.326Z,91.6
2017-09-10T07:02:12.726Z,91.7
2017-09-10T07:03:15.126Z,91.8
2017-09-10T07:04:17.538Z,91.8
2017-09-10T07:05:19.947Z,91.7
2017-09-10T07:06:22.345Z,91.7
2017-09-10T07:07:24.744Z,91.6
2017-09-10T07:08:27.140Z,91.6
2017-09-10T07:09:29.550Z,91.6
2017-09-10T07:10:31.945Z,91.6
2017-09-10T07:11:34.345Z,91.7
2017-09-10T07:12:36.743Z,91.6
2017-09-10T07:13:39.142Z,91.6
2017-09-10T07:14:41.577Z,91.7
2017-09-10T07:15:43.970Z,91.6
2017-09-10T07:16:46.371Z,91.5
2017-09-10T07:17:48.778Z,91.5
2017-09-10T07:18:51.181Z,91.4
2017-09-10T07:19:54.610Z,91.5
2017-09-10T07:20:57.006Z,91.6
2017-09-10T07:21:59.407Z,91.6
2017-09-10T07:23:01.809Z,91.6
2017-09-10T07:24:04.541Z,91.6
2017-09-10T07:25:06.947Z,91.5
2017-09-10T07:26:09.348Z,91.5
2017-09-10T07:27:12.091Z,91.6
2017-09-10T07:28:14.476Z,91.7
2017-09-10T07:29:16.871Z,91.6
2017-09-10T07:30:19.273Z,91.7
2017-09-10T07:31:22.035Z,91.8
2017-09-10T07:32:24.431Z,91.8
2017-09-10T07:33:26.836Z,91.9
2017-09-10T07:34:29.240Z,92
2017-09-10T07:35:31.631Z,92.2
2017-09-10T07:36:34.053Z,92.2
2017-09-10T07:37:36.453Z,92.1
2017-09-10T07:38:39.188Z,92.2
2017-09-10T07:39:41.941Z,92.1
2017-09-10T07:40:44.325Z,92.1
2017-09-10T07:41:46.729Z,92.1
2017-09-10T07:42:49.126Z,92.1
2017-09-10T07:43:51.532Z,92.1
2017-09-10T07:44:53.931Z,92
2017-09-10T07:45:56.333Z,91.8
2017-09-10T07:46:58.734Z,91.8
2017-09-10T07:48:01.141Z,91.7
2017-09-10T07:49:03.542Z,91.7
2017-09-10T07:50:05.932Z,91.8
2017-09-10T07:51:08.332Z,91.8
2017-09-10T07:52:10.725Z,91.9
2017-09-10T07:53:13.152Z,92
2017-09-10T07:54:15.548Z,92.1
2017-09-10T07:55:17.941Z,92.2
2017-09-10T07:56:20.679Z,92.3
2017-09-10T07:57:23.081Z,92.3
2017-09-10T07:58:25.487Z,92.3
2017-09-10T07:59:27.876Z,92.4
2017-09-10T08:00:30.284Z,92.3
2017-09-10T08:01:32.691Z,92.4
2017-09-10T08:02:35.092Z,92.5
2017-09-10T08:03:37.485Z,92.4
2017-09-10T08:04:39.877Z,92.4
2017-09-10T08:05:42.290Z,92.5
2017-09-10T08:06:44.687Z,92.5
2017-09-10T08:07:47.083Z,92.2
2017-09-10T08:08:49.507Z,92.1
2017-09-10T08:09:51.903Z,92.1
2017-09-10T08:10:54.315Z,91.9
2017-09-10T08:11:56.711Z,91.8
2017-09-10T08:12:59.116Z,91.7
2017-09-10T08:14:01.517Z,91.8
2017-09-10T08:15:03.917Z,92.1
2017-09-10T08:16:06.317Z,92.3
2017-09-10T08:17:08.721Z,92.6
2017-09-10T08:18:11.124Z,92.6
2017-09-10T08:19:13.536Z,92.9
2017-09-10T08:20:15.933Z,92.9
2017-09-10T08:21:18.333Z,93.2
2017-09-10T08:22:20.735Z,93.2
2017-09-10T08:23:23.140Z,93.7
2017-09-10T08:24:25.535Z,94.2
2017-09-10T08:25:27.944Z,94.6
2017-09-10T08:26:30.344Z,94.9
2017-09-10T08:27:32.748Z,95.1
2017-09-10T08:28:35.482Z,94.9
2017-09-10T08:29:37.886Z,94.8
2017-09-10T08:30:40.283Z,94.8
2017-09-10T08:31:42.686Z,94.6
2017-09-10T08:32:45.415Z,94.7
2017-09-10T08:33:47.830Z,94.8
2017-09-10T08:34:50.578Z,95
2017-09-10T08:35:52.976Z,95.1
2017-09-10T08:36:55.400Z,95.1
2017-09-10T08:37:57.796Z,94.8
2017-09-10T08:39:00.203Z,94.9
2017-09-10T08:40:02.603Z,95.1
2017-09-10T08:41:05.110Z,95.3
2017-09-10T08:42:07.513Z,95.3
2017-09-10T08:43:09.918Z,95.8
2017-09-10T08:44:12.338Z,95.7
2017-09-10T08:45:14.756Z,95.3
2017-09-10T08:46:17.157Z,94.3
2017-09-10T08:47:19.581Z,94.8
2017-09-10T08:48:21.975Z,95.7
2017-09-10T08:49:24.370Z,96.1
2017-09-10T08:50:26.779Z,96.8
2017-09-10T08:51:29.193Z,97.2
2017-09-10T08:52:31.593Z,96.6
2017-09-10T08:53:34.013Z,96.6
2017-09-10T08:54:36.431Z,96.2
2017-09-10T08:55:39.187Z,96.3
2017-09-10T08:56:41.597Z,95.6
2017-09-10T08:57:44.008Z,95.3
2017-09-10T08:58:46.406Z,95.3
2017-09-10T08:59:48.818Z,95.2
2017-09-10T09:00:51.224Z,95.2
2017-09-10T09:01:53.635Z,95.5
2017-09-10T09:02:56.040Z,95.9
2017-09-10T09:03:58.441Z,96.6
2017-09-10T09:05:01.213Z,96.7
2017-09-10T09:06:03.631Z,97
2017-09-10T09:07:06.401Z,96.3
2017-09-10T09:08:08.818Z,96.4
2017-09-10T09:09:11.240Z,96.2
2017-09-10T09:10:13.650Z,95.2
2017-09-10T09:11:16.067Z,94
2017-09-10T09:12:18.465Z,93.7
2017-09-10T09:13:20.879Z,93
2017-09-10T09:14:23.283Z,93.2
2017-09-10T09:15:25.697Z,92.5
2017-09-10T09:16:28.107Z,92.7
2017-09-10T09:17:30.514Z,92.6
2017-09-10T09:18:33.273Z,92.6
2017-09-10T09:19:35.689Z,92.8
2017-09-10T09:20:38.084Z,92.3
2017-09-10T09:21:40.841Z,92.1
2017-09-10T09:22:43.255Z,92.2
2017-09-10T09:23:45.661Z,92.2
2017-09-10T09:24:48.077Z,92.3
2017-09-10T09:25:50.492Z,92.4
2017-09-10T09:26:53.243Z,92.9
2017-09-10T09:27:55.657Z,92.1
2017-09-10T09:28:58.068Z,91.8
2017-09-10T09:30:00.466Z,92.4
2017-09-10T09:31:02.893Z,92.3
2017-09-10T09:32:05.303Z,92.2
2017-09-10T09:33:07.714Z,92.4
2017-09-10T09:34:10.126Z,92
2017-09-10T09:35:12.530Z,92.6
2017-09-10T09:36:14.963Z,93.1
2017-09-10T09:37:17.382Z,92.8
2017-09-10T09:38:19.786Z,91.9
2017-09-10T09:39:22.213Z,91.2
2017-09-10T09:40:24.628Z,91.1
2017-09-10T09:41:27.053Z,91.5
2017-09-10T09:42:29.466Z,91.7
2017-09-10T09:43:32.213Z,92
2017-09-10T09:44:34.629Z,92.1
2017-09-10T09:45:37.052Z,91.7
2017-09-10T09:46:39.456Z,90.8
2017-09-10T09:47:41.872Z,91.3
2017-09-10T09:48:44.287Z,91.3
2017-09-10T09:49:46.699Z,90.8
2017-09-10T09:50:49.113Z,90.7
2017-09-10T09:51:51.542Z,90.5
2017-09-10T09:52:54.283Z,90.9
2017-09-10T09:53:56.706Z,91.3
2017-09-10T09:54:59.120Z,91.7
2017-09-10T09:56:01.511Z,91.8
2017-09-10T09:57:03.943Z,90.9
2017-09-10T09:58:06.350Z,90.6
2017-09-10T09:59:08.760Z,90.7
2017-09-10T10:00:11.171Z,90.7
2017-09-10T10:01:13.578Z,90.9
2017-09-10T10:02:15.988Z,90.8
2017-09-10T10:03:18.411Z,90.3
2017-09-10T10:04:20.812Z,89.7
2017-09-10T10:05:23.556Z,90.1
2017-09-10T10:06:25.964Z,90.1
2017-09-10T10:07:28.378Z,90
2017-09-10T10:08:30.778Z,89.2
2017-09-10T10:09:33.185Z,89.4
2017-09-10T10:10:35.607Z,90
2017-09-10T10:11:38.021Z,91
2017-09-10T10:12:40.429Z,91
2017-09-10T10:13:42.843Z,91.8
2017-09-10T10:14:45.251Z,91.8
2017-09-10T10:15:47.666Z,91.6
2017-09-10T10:16:50.087Z,91.3
2017-09-10T10:17:52.491Z,90.2
2017-09-10T10:18:55.251Z,89.4
2017-09-10T10:19:58.021Z,90.2
2017-09-10T10:21:00.424Z,90.7
2017-09-10T10:22:02.830Z,91.6
2017-09-10T10:23:05.240Z,92.3
2017-09-10T10:24:07.647Z,92.7
2017-09-10T10:25:10.061Z,92.4
2017-09-10T10:26:12.468Z,92.6
2017-09-10T10:27:14.882Z,92.5
2017-09-10T10:28:17.300Z,91.8
2017-09-10T10:29:19.712Z,91.7
2017-09-10T10:30:22.130Z,92.2
2017-09-10T10:31:24.541Z,91.4
2017-09-10T10:32:26.950Z,90.2
2017-09-10T10:33:29.357Z,89.5
2017-09-10T10:34:31.771Z,89.4
2017-09-10T10:35:34.189Z,87.8
2017-09-10T10:36:36.600Z,85.9
2017-09-10T10:37:39.014Z,88.3
2017-09-10T10:38:41.425Z,90.3
2017-09-10T10:39:43.825Z,91.5
2017-09-10T10:40:46.231Z,91.7
2017-09-10T10:41:48.656Z,91.2
2017-09-10T10:42:51.068Z,92.1
2017-09-10T10:43:53.803Z,91.5
2017-09-10T10:44:56.219Z,91.2
2017-09-10T10:45:58.629Z,90.7
2017-09-10T10:47:01.042Z,91
2017-09-10T10:48:03.451Z,91.1
2017-09-10T10:49:05.857Z,91.1
2017-09-10T10:50:08.261Z,90.9
2017-09-10T10:51:11.017Z,90.5
2017-09-10T10:52:13.421Z,90.4
2017-09-10T10:53:16.183Z,90.5
2017-09-10T10:54:18.597Z,90.8
2017-09-10T10:55:21.001Z,90
2017-09-10T10:56:23.412Z,88.8
2017-09-10T10:57:25.828Z,90.3
2017-09-10T10:58:28.231Z,91.5
2017-09-10T10:59:30.640Z,92.2
2017-09-10T11:00:33.060Z,92.6
2017-09-10T11:01:35.462Z,91.3
2017-09-10T11:02:37.895Z,90.9
2017-09-10T11:03:40.302Z,91.6
2017-09-10T11:04:42.713Z,91.8
2017-09-10T11:05:45.114Z,92.1
2017-09-10T11:06:47.527Z,92.2
2017-09-10T11:07:49.940Z,92.2
2017-09-10T11:08:52.351Z,92.8
2017-09-10T11:09:54.758Z,93.3
2017-09-10T11:10:57.169Z,93.9
2017-09-10T11:11:59.579Z,93.5
2017-09-10T11:13:02.326Z,93.3
2017-09-10T11:14:04.730Z,92.4
2017-09-10T11:15:07.138Z,92.7
2017-09-10T11:16:09.539Z,92.2
2017-09-10T11:17:11.960Z,91.5
2017-09-10T11:18:14.367Z,92
2017-09-10T11:19:16.773Z,92.8
2017-09-10T11:20:19.185Z,92.6
2017-09-10T11:21:21.594Z,92.5
2017-09-10T11:22:24.008Z,92.5
2017-09-10T11:23:26.420Z,91.4
2017-09-10T11:24:28.830Z,91.1
2017-09-10T11:25:31.244Z,91.2
2017-09-10T11:26:33.648Z,90.1
2017-09-10T11:27:36.066Z,89.5
2017-09-10T11:28:38.484Z,89.3
2017-09-10T11:29:40.891Z,89.3
2017-09-10T11:30:43.296Z,89.7
2017-09-10T11:31:45.712Z,90.4
2017-09-10T11:32:48.124Z,90.9
2017-09-10T11:33:50.538Z,91.8
2017-09-10T11:34:52.975Z,91.7
2017-09-10T11:35:55.370Z,92
2017-09-10T11:36:57.788Z,91.9
2017-09-10T11:38:00.540Z,91.5
2017-09-10T11:39:02.958Z,91.6
2017-09-10T11:40:05.377Z,91.6
2017-09-10T11:41:08.129Z,92.1
2017-09-10T11:42:10.541Z,91.5
2017-09-10T11:43:12.937Z,91.6
2017-09-10T11:44:15.694Z,91.8
2017-09-10T11:45:18.107Z,91.6
2017-09-10T11:46:20.520Z,91.6
2017-09-10T11:47:23.372Z,91.8
2017-09-10T11:48:25.788Z,91.1
2017-09-10T11:49:28.197Z,90.3
2017-09-10T11:50:30.617Z,91.3
2017-09-10T11:51:33.029Z,91.1
2017-09-10T11:52:35.439Z,91.5
2017-09-10T11:53:37.858Z,91.5
2017-09-10T11:54:40.272Z,91.3
2017-09-10T11:55:42.685Z,91.1
2017-09-10T11:56:45.113Z,92.2
2017-09-10T11:57:47.508Z,92.6
2017-09-10T11:58:49.923Z,92.5
2017-09-10T11:59:52.351Z,91.7
2017-09-10T12:00:54.753Z,91.3
2017-09-10T12:01:57.159Z,90.3
2017-09-10T12:02:59.571Z,91
2017-09-10T12:04:01.983Z,90.7
2017-09-10T12:05:04.410Z,91.2
2017-09-10T12:06:06.826Z,91.2
2017-09-10T12:07:09.233Z,91.3
2017-09-10T12:08:11.645Z,91.1
2017-09-10T12:09:14.056Z,91.4
2017-09-10T12:10:16.476Z,92
2017-09-10T12:11:18.886Z,91
2017-09-10T12:12:21.352Z,91.6
2017-09-10T12:13:23.761Z,92
2017-09-10T12:14:26.177Z,91.6
2017-09-10T12:15:28.591Z,91.5
2017-09-10T12:16:31.008Z,91.2
2017-09-10T12:17:33.425Z,90.6
2017-09-10T12:18:35.855Z,91.4
2017-09-10T12:19:38.261Z,90
2017-09-10T12:20:40.670Z,90.3
2017-09-10T12:21:43.076Z,90.1
2017-09-10T12:22:45.494Z,90.5
2017-09-10T12:23:47.903Z,90.9
2017-09-10T12:24:50.316Z,90.5
2017-09-10T12:25:52.741Z,89.4
2017-09-10T12:26:55.147Z,89.2
2017-09-10T12:27:57.914Z,89.8
2017-09-10T12:29:00.327Z,90
2017-09-10T12:30:02.738Z,89.9
2017-09-10T12:31:05.487Z,90
2017-09-10T12:32:07.905Z,90.5
2017-09-10T12:33:10.327Z,90.2
2017-09-10T12:34:12.743Z,90.1
2017-09-10T12:35:15.496Z,89.2
2017-09-10T12:36:17.916Z,89.3
2017-09-10T12:37:20.323Z,86.7
2017-09-10T12:38:22.730Z,86.5
2017-09-10T12:39:25.142Z,87.1
2017-09-10T12:40:27.553Z,88.1
2017-09-10T12:41:30.338Z,87.5
2017-09-10T12:42:32.744Z,86.4
2017-09-10T12:43:35.163Z,87.6
2017-09-10T12:44:37.571Z,86.9
2017-09-10T12:45:39.983Z,87
2017-09-10T12:46:42.386Z,87
2017-09-10T12:47:44.804Z,88.4
2017-09-10T12:48:47.212Z,89.9
2017-09-10T12:49:49.645Z,88.9
2017-09-10T12:50:52.054Z,88.3
2017-09-10T12:51:54.468Z,89.2
2017-09-10T12:52:56.870Z,87.5
2017-09-10T12:53:59.287Z,87.7
2017-09-10T12:55:01.698Z,87.1
2017-09-10T12:56:04.112Z,87
2017-09-10T12:57:06.524Z,87.6
2017-09-10T12:58:08.943Z,87.8
2017-09-10T12:59:11.361Z,88.5
2017-09-10T13:00:13.776Z,87.7
2017-09-10T13:01:16.194Z,87.7
2017-09-10T13:02:18.605Z,87.9
2017-09-10T13:03:21.021Z,88.3
2017-09-10T13:04:23.432Z,88.3
2017-09-10T13:05:25.841Z,88.5
2017-09-10T13:06:28.238Z,88.9
2017-09-10T13:07:30.658Z,89.6
2017-09-10T13:08:33.079Z,89.3
2017-09-10T13:09:35.490Z,88.8
2017-09-10T13:10:37.945Z,88.9
2017-09-10T13:11:40.355Z,88.8
2017-09-10T13:12:42.765Z,88
2017-09-10T13:13:45.190Z,87.1
2017-09-10T13:14:47.597Z,87
2017-09-10T13:15:50.001Z,85.7
2017-09-10T13:16:52.417Z,86.4
2017-09-10T13:17:54.833Z,86.8
2017-09-10T13:18:57.245Z,86.8
2017-09-10T13:19:59.671Z,86.4
2017-09-10T13:21:02.430Z,86.8
2017-09-10T13:22:04.836Z,86.9
2017-09-10T13:23:07.257Z,86.8
2017-09-10T13:24:09.671Z,86.7
2017-09-10T13:25:12.074Z,85.9
2017-09-10T13:26:14.823Z,86.3
2017-09-10T13:27:17.228Z,86.5
2017-09-10T13:28:19.657Z,84.7
2017-09-10T13:29:22.112Z,82.6
2017-09-10T13:30:24.521Z,84.2
2017-09-10T13:31:26.951Z,85.6
2017-09-10T13:32:29.380Z,86.7
2017-09-10T13:33:32.171Z,86.6
2017-09-10T13:34:34.621Z,84.5
2017-09-10T13:35:37.051Z,84.7
2017-09-10T13:36:39.484Z,85.5
2017-09-10T13:37:41.902Z,85.6
2017-09-10T13:38:44.348Z,86.7
2017-09-10T13:39:46.753Z,86.7
2017-09-10T13:40:49.175Z,86.7
2017-09-10T13:41:51.611Z,86.8
2017-09-10T13:42:54.050Z,86.7
2017-09-10T13:43:56.503Z,86.8
2017-09-10T13:44:58.937Z,85.2
2017-09-10T13:46:01.368Z,85.5
2017-09-10T13:47:04.150Z,85.4
2017-09-10T13:48:06.587Z,85.5
2017-09-10T13:49:09.030Z,84.1
2017-09-10T13:50:11.451Z,85.1
2017-09-10T13:51:13.875Z,85.8
2017-09-10T13:52:16.300Z,86.4
2017-09-10T13:53:18.731Z,84.7
2017-09-10T13:54:21.188Z,84.2
2017-09-10T13:55:23.623Z,84.1
2017-09-10T13:56:26.051Z,83.9